sensor_id;sensor_type;location;lat;lon;timestamp;pressure;altitude;pressure_sealevel;temperature;humidity
75551;BME280;65071;53.082;18.218;2022-11-21T00:00:43;100314.24;;;-3.38;82.51
75551;BME280;65071;53.082;18.218;2022-11-21T00:03:10;100315.95;;;-3.40;82.62
75551;BME280;65071;53.082;18.218;2022-11-21T00:05:43;100314.58;;;-3.44;82.77
75551;BME280;65071;53.082;18.218;2022-11-21T00:08:11;100313.08;;;-3.49;83.14
75551;BME280;65071;53.082;18.218;2022-11-21T00:10:39;100318.63;;;-3.55;82.73
75551;BME280;65071;53.082;18.218;2022-11-21T00:13:06;100321.24;;;-3.62;82.90
75551;BME280;65071;53.082;18.218;2022-11-21T00:15:33;100321.23;;;-3.69;82.83
75551;BME280;65071;53.082;18.218;2022-11-21T00:18:03;100321.46;;;-3.70;83.05
75551;BME280;65071;53.082;18.218;2022-11-21T00:20:30;100314.88;;;-3.68;82.62
75551;BME280;65071;53.082;18.218;2022-11-21T00:22:56;100311.14;;;-3.74;82.49
75551;BME280;65071;53.082;18.218;2022-11-21T00:25:22;100313.20;;;-3.81;82.20
75551;BME280;65071;53.082;18.218;2022-11-21T00:27:48;100311.20;;;-3.90;82.22
75551;BME280;65071;53.082;18.218;2022-11-21T00:30:14;100313.84;;;-4.01;82.20
75551;BME280;65071;53.082;18.218;2022-11-21T00:32:40;100316.70;;;-4.13;82.23
75551;BME280;65071;53.082;18.218;2022-11-21T00:35:06;100318.58;;;-4.23;82.45
75551;BME280;65071;53.082;18.218;2022-11-21T00:37:33;100318.42;;;-4.31;82.50
75551;BME280;65071;53.082;18.218;2022-11-21T00:39:59;100322.77;;;-4.38;82.69
75551;BME280;65071;53.082;18.218;2022-11-21T00:42:25;100318.86;;;-4.44;82.89
75551;BME280;65071;53.082;18.218;2022-11-21T00:44:51;100318.59;;;-4.50;82.55
75551;BME280;65071;53.082;18.218;2022-11-21T00:47:17;100314.38;;;-4.54;82.65
75551;BME280;65071;53.082;18.218;2022-11-21T00:49:43;100312.06;;;-4.61;82.66
75551;BME280;65071;53.082;18.218;2022-11-21T00:52:10;100312.67;;;-4.66;82.63
75551;BME280;65071;53.082;18.218;2022-11-21T00:54:36;100312.41;;;-4.72;82.53
75551;BME280;65071;53.082;18.218;2022-11-21T00:57:02;100313.70;;;-4.77;82.59
75551;BME280;65071;53.082;18.218;2022-11-21T00:59:28;100312.24;;;-4.73;82.47
75551;BME280;65071;53.082;18.218;2022-11-21T01:01:54;100311.58;;;-4.73;82.54
75551;BME280;65071;53.082;18.218;2022-11-21T01:04:20;100304.80;;;-4.74;82.39
75551;BME280;65071;53.082;18.218;2022-11-21T01:06:46;100303.85;;;-4.77;82.49
75551;BME280;65071;53.082;18.218;2022-11-21T01:09:12;100304.35;;;-4.80;82.75
75551;BME280;65071;53.082;18.218;2022-11-21T01:11:38;100300.64;;;-4.79;82.82
75551;BME280;65071;53.082;18.218;2022-11-21T01:14:04;100305.10;;;-4.81;82.96
75551;BME280;65071;53.082;18.218;2022-11-21T01:16:30;100320.77;;;-4.82;83.02
75551;BME280;65071;53.082;18.218;2022-11-21T01:18:56;100311.86;;;-4.83;83.43
75551;BME280;65071;53.082;18.218;2022-11-21T01:21:28;100310.08;;;-4.87;83.34
75551;BME280;65071;53.082;18.218;2022-11-21T01:23:57;100308.30;;;-4.90;83.34
75551;BME280;65071;53.082;18.218;2022-11-21T01:26:28;100301.35;;;-4.87;83.36
75551;BME280;65071;53.082;18.218;2022-11-21T01:28:56;100306.63;;;-4.84;83.16
75551;BME280;65071;53.082;18.218;2022-11-21T01:31:27;100319.61;;;-4.88;83.29
75551;BME280;65071;53.082;18.218;2022-11-21T01:33:55;100322.90;;;-4.95;83.36
75551;BME280;65071;53.082;18.218;2022-11-21T01:38:50;100325.42;;;-5.08;83.22
75551;BME280;65071;53.082;18.218;2022-11-21T01:41:19;100328.92;;;-5.04;83.33
75551;BME280;65071;53.082;18.218;2022-11-21T01:43:46;100330.36;;;-5.01;83.24
75551;BME280;65071;53.082;18.218;2022-11-21T01:46:15;100332.49;;;-5.01;83.35
75551;BME280;65071;53.082;18.218;2022-11-21T01:56:36;100340.39;;;-5.18;83.45
75551;BME280;65071;53.082;18.218;2022-11-21T01:59:06;100340.73;;;-5.14;83.58
75551;BME280;65071;53.082;18.218;2022-11-21T02:01:34;100334.48;;;-5.11;83.40
75551;BME280;65071;53.082;18.218;2022-11-21T02:04:02;100336.01;;;-5.10;83.39
75551;BME280;65071;53.082;18.218;2022-11-21T02:06:30;100345.35;;;-5.15;83.40
75551;BME280;65071;53.082;18.218;2022-11-21T02:08:58;100348.48;;;-5.19;83.60
75551;BME280;65071;53.082;18.218;2022-11-21T02:11:46;100343.27;;;-5.20;83.69
75551;BME280;65071;53.082;18.218;2022-11-21T02:14:14;100340.80;;;-5.12;83.67
75551;BME280;65071;53.082;18.218;2022-11-21T02:16:41;100340.69;;;-5.13;83.59
75551;BME280;65071;53.082;18.218;2022-11-21T02:19:09;100341.14;;;-5.15;83.90
75551;BME280;65071;53.082;18.218;2022-11-21T02:21:49;100338.09;;;-5.17;83.84
75551;BME280;65071;53.082;18.218;2022-11-21T02:24:42;100334.63;;;-5.10;83.95
75551;BME280;65071;53.082;18.218;2022-11-21T02:27:11;100331.09;;;-5.01;83.83
75551;BME280;65071;53.082;18.218;2022-11-21T02:29:38;100327.77;;;-5.02;83.78
75551;BME280;65071;53.082;18.218;2022-11-21T02:32:05;100332.14;;;-5.05;83.89
75551;BME280;65071;53.082;18.218;2022-11-21T02:34:32;100328.91;;;-5.03;84.17
75551;BME280;65071;53.082;18.218;2022-11-21T02:37:00;100324.83;;;-4.99;83.84
75551;BME280;65071;53.082;18.218;2022-11-21T02:39:33;100327.34;;;-5.00;83.85
75551;BME280;65071;53.082;18.218;2022-11-21T02:42:20;100325.75;;;-5.03;83.81
75551;BME280;65071;53.082;18.218;2022-11-21T02:45:24;100326.33;;;-5.09;84.03
75551;BME280;65071;53.082;18.218;2022-11-21T02:47:55;100328.63;;;-5.13;84.07
75551;BME280;65071;53.082;18.218;2022-11-21T02:50:30;100331.00;;;-5.07;83.87
75551;BME280;65071;53.082;18.218;2022-11-21T02:52:56;100326.45;;;-5.04;83.95
75551;BME280;65071;53.082;18.218;2022-11-21T02:55:23;100323.34;;;-5.09;83.80
75551;BME280;65071;53.082;18.218;2022-11-21T02:57:49;100317.21;;;-5.17;83.93
75551;BME280;65071;53.082;18.218;2022-11-21T03:00:16;100320.20;;;-5.21;83.85
75551;BME280;65071;53.082;18.218;2022-11-21T03:02:42;100316.45;;;-5.20;84.04
75551;BME280;65071;53.082;18.218;2022-11-21T03:05:11;100315.70;;;-5.19;83.85
75551;BME280;65071;53.082;18.218;2022-11-21T03:07:38;100311.54;;;-5.20;83.75
75551;BME280;65071;53.082;18.218;2022-11-21T03:10:05;100312.95;;;-5.24;83.94
75551;BME280;65071;53.082;18.218;2022-11-21T03:12:31;100312.31;;;-5.25;84.07
75551;BME280;65071;53.082;18.218;2022-11-21T03:14:57;100314.02;;;-5.29;83.91
75551;BME280;65071;53.082;18.218;2022-11-21T03:17:23;100317.19;;;-5.21;83.84
75551;BME280;65071;53.082;18.218;2022-11-21T03:19:49;100322.34;;;-5.14;83.75
75551;BME280;65071;53.082;18.218;2022-11-21T03:22:15;100314.59;;;-5.13;84.08
75551;BME280;65071;53.082;18.218;2022-11-21T03:24:41;100309.31;;;-5.17;84.07
75551;BME280;65071;53.082;18.218;2022-11-21T03:27:07;100311.35;;;-5.19;84.06
75551;BME280;65071;53.082;18.218;2022-11-21T03:29:33;100306.50;;;-5.21;83.94
75551;BME280;65071;53.082;18.218;2022-11-21T03:31:59;100310.70;;;-5.20;83.68
75551;BME280;65071;53.082;18.218;2022-11-21T03:34:25;100302.70;;;-5.22;83.65
75551;BME280;65071;53.082;18.218;2022-11-21T03:36:51;100300.04;;;-5.13;83.70
75551;BME280;65071;53.082;18.218;2022-11-21T03:39:17;100300.53;;;-5.08;83.58
75551;BME280;65071;53.082;18.218;2022-11-21T03:41:43;100293.40;;;-5.05;83.49
75551;BME280;65071;53.082;18.218;2022-11-21T03:44:10;100296.65;;;-5.08;83.75
75551;BME280;65071;53.082;18.218;2022-11-21T03:46:39;100297.65;;;-5.10;83.52
75551;BME280;65071;53.082;18.218;2022-11-21T03:49:06;100301.25;;;-5.08;83.49
75551;BME280;65071;53.082;18.218;2022-11-21T03:51:33;100301.60;;;-5.09;83.46
75551;BME280;65071;53.082;18.218;2022-11-21T03:53:59;100303.77;;;-4.98;83.30
75551;BME280;65071;53.082;18.218;2022-11-21T03:56:26;100305.77;;;-4.92;83.38
75551;BME280;65071;53.082;18.218;2022-11-21T03:58:53;100306.52;;;-4.85;83.44
75551;BME280;65071;53.082;18.218;2022-11-21T04:01:19;100307.05;;;-4.82;83.43
75551;BME280;65071;53.082;18.218;2022-11-21T04:03:46;100310.15;;;-4.84;83.48
75551;BME280;65071;53.082;18.218;2022-11-21T04:06:15;100298.71;;;-4.87;83.56
75551;BME280;65071;53.082;18.218;2022-11-21T04:08:41;100292.94;;;-4.91;83.33
75551;BME280;65071;53.082;18.218;2022-11-21T04:11:08;100296.58;;;-4.94;83.36
75551;BME280;65071;53.082;18.218;2022-11-21T04:13:34;100296.69;;;-4.97;83.06
75551;BME280;65071;53.082;18.218;2022-11-21T04:16:00;100294.28;;;-4.94;83.11
75551;BME280;65071;53.082;18.218;2022-11-21T04:18:26;100294.63;;;-4.90;83.07
75551;BME280;65071;53.082;18.218;2022-11-21T04:21:00;100293.61;;;-4.90;83.10
75551;BME280;65071;53.082;18.218;2022-11-21T04:23:26;100291.72;;;-4.95;83.24
75551;BME280;65071;53.082;18.218;2022-11-21T04:25:53;100288.98;;;-5.01;83.30
75551;BME280;65071;53.082;18.218;2022-11-21T04:28:19;100286.96;;;-5.07;83.40
75551;BME280;65071;53.082;18.218;2022-11-21T04:30:46;100286.61;;;-5.11;83.24
75551;BME280;65071;53.082;18.218;2022-11-21T04:33:13;100287.29;;;-5.06;83.28
75551;BME280;65071;53.082;18.218;2022-11-21T04:35:41;100288.27;;;-5.05;83.36
75551;BME280;65071;53.082;18.218;2022-11-21T04:38:07;100283.05;;;-5.05;83.20
75551;BME280;65071;53.082;18.218;2022-11-21T04:40:34;100282.48;;;-5.04;83.26
75551;BME280;65071;53.082;18.218;2022-11-21T04:43:00;100277.02;;;-5.00;83.15
75551;BME280;65071;53.082;18.218;2022-11-21T04:45:27;100269.46;;;-4.99;83.29
75551;BME280;65071;53.082;18.218;2022-11-21T04:47:53;100269.55;;;-4.97;83.46
75551;BME280;65071;53.082;18.218;2022-11-21T04:50:20;100273.51;;;-5.00;83.17
75551;BME280;65071;53.082;18.218;2022-11-21T04:52:54;100282.16;;;-5.01;83.21
75551;BME280;65071;53.082;18.218;2022-11-21T04:55:22;100288.80;;;-5.00;83.15
75551;BME280;65071;53.082;18.218;2022-11-21T04:57:49;100274.92;;;-5.04;83.39
75551;BME280;65071;53.082;18.218;2022-11-21T05:00:16;100280.32;;;-4.87;83.30
75551;BME280;65071;53.082;18.218;2022-11-21T05:02:42;100280.41;;;-4.86;83.32
75551;BME280;65071;53.082;18.218;2022-11-21T05:05:09;100283.98;;;-4.79;83.25
75551;BME280;65071;53.082;18.218;2022-11-21T05:07:36;100282.54;;;-4.78;83.21
75551;BME280;65071;53.082;18.218;2022-11-21T05:10:04;100280.77;;;-4.78;83.53
75551;BME280;65071;53.082;18.218;2022-11-21T05:12:30;100272.93;;;-4.79;83.51
75551;BME280;65071;53.082;18.218;2022-11-21T05:15:14;100265.58;;;-4.79;83.29
75551;BME280;65071;53.082;18.218;2022-11-21T05:17:41;100265.73;;;-4.72;83.34
75551;BME280;65071;53.082;18.218;2022-11-21T05:20:08;100261.92;;;-4.69;83.20
75551;BME280;65071;53.082;18.218;2022-11-21T05:22:34;100258.59;;;-4.65;83.16
75551;BME280;65071;53.082;18.218;2022-11-21T05:25:00;100255.96;;;-4.62;83.33
75551;BME280;65071;53.082;18.218;2022-11-21T05:27:26;100254.75;;;-4.58;83.58
75551;BME280;65071;53.082;18.218;2022-11-21T05:29:52;100251.55;;;-4.57;83.30
75551;BME280;65071;53.082;18.218;2022-11-21T05:32:19;100247.46;;;-4.56;83.41
75551;BME280;65071;53.082;18.218;2022-11-21T05:34:45;100252.08;;;-4.53;83.34
75551;BME280;65071;53.082;18.218;2022-11-21T05:37:11;100249.52;;;-4.52;83.41
75551;BME280;65071;53.082;18.218;2022-11-21T05:39:37;100248.73;;;-4.50;83.43
75551;BME280;65071;53.082;18.218;2022-11-21T05:42:03;100251.00;;;-4.49;83.46
75551;BME280;65071;53.082;18.218;2022-11-21T05:44:29;100246.76;;;-4.49;83.39
75551;BME280;65071;53.082;18.218;2022-11-21T05:46:55;100244.41;;;-4.47;83.26
75551;BME280;65071;53.082;18.218;2022-11-21T05:49:21;100242.11;;;-4.47;83.17
75551;BME280;65071;53.082;18.218;2022-11-21T05:51:48;100249.23;;;-4.41;83.11
75551;BME280;65071;53.082;18.218;2022-11-21T05:54:14;100248.03;;;-4.31;83.14
75551;BME280;65071;53.082;18.218;2022-11-21T05:56:40;100248.63;;;-4.25;83.15
75551;BME280;65071;53.082;18.218;2022-11-21T05:59:07;100246.23;;;-4.19;83.26
75551;BME280;65071;53.082;18.218;2022-11-21T06:01:35;100245.63;;;-4.14;83.21
75551;BME280;65071;53.082;18.218;2022-11-21T06:04:20;100242.02;;;-4.05;83.15
75551;BME280;65071;53.082;18.218;2022-11-21T06:06:46;100236.42;;;-4.01;83.13
75551;BME280;65071;53.082;18.218;2022-11-21T06:09:12;100238.98;;;-4.00;83.29
75551;BME280;65071;53.082;18.218;2022-11-21T06:11:38;100236.34;;;-4.00;83.22
75551;BME280;65071;53.082;18.218;2022-11-21T06:14:04;100236.67;;;-4.00;83.28
75551;BME280;65071;53.082;18.218;2022-11-21T06:16:30;100233.38;;;-4.00;83.06
75551;BME280;65071;53.082;18.218;2022-11-21T06:18:56;100234.06;;;-4.00;83.31
75551;BME280;65071;53.082;18.218;2022-11-21T06:21:24;100232.20;;;-4.01;82.98
75551;BME280;65071;53.082;18.218;2022-11-21T06:23:53;100228.48;;;-4.00;83.31
75551;BME280;65071;53.082;18.218;2022-11-21T06:26:21;100225.86;;;-4.01;83.13
75551;BME280;65071;53.082;18.218;2022-11-21T06:28:48;100229.06;;;-4.02;83.24
75551;BME280;65071;53.082;18.218;2022-11-21T06:31:16;100232.68;;;-4.00;83.32
75551;BME280;65071;53.082;18.218;2022-11-21T06:33:43;100232.98;;;-3.99;83.13
75551;BME280;65071;53.082;18.218;2022-11-21T06:36:14;100237.48;;;-3.87;83.02
75551;BME280;65071;53.082;18.218;2022-11-21T06:38:42;100242.34;;;-3.76;83.14
75551;BME280;65071;53.082;18.218;2022-11-21T06:41:17;100240.83;;;-3.67;83.36
75551;BME280;65071;53.082;18.218;2022-11-21T06:43:44;100239.48;;;-3.57;83.38
75551;BME280;65071;53.082;18.218;2022-11-21T06:46:10;100244.09;;;-3.51;83.20
75551;BME280;65071;53.082;18.218;2022-11-21T06:48:37;100247.34;;;-3.46;83.34
75551;BME280;65071;53.082;18.218;2022-11-21T06:51:10;100251.06;;;-3.44;83.19
75551;BME280;65071;53.082;18.218;2022-11-21T06:53:37;100248.87;;;-3.45;83.41
75551;BME280;65071;53.082;18.218;2022-11-21T06:56:03;100245.54;;;-3.45;83.19
75551;BME280;65071;53.082;18.218;2022-11-21T06:58:30;100241.89;;;-3.46;83.22
75551;BME280;65071;53.082;18.218;2022-11-21T07:00:56;100241.52;;;-3.46;83.36
75551;BME280;65071;53.082;18.218;2022-11-21T07:03:23;100238.88;;;-3.36;83.02
75551;BME280;65071;53.082;18.218;2022-11-21T07:05:49;100236.64;;;-3.20;82.78
75551;BME280;65071;53.082;18.218;2022-11-21T07:08:17;100238.04;;;-3.06;82.97
75551;BME280;65071;53.082;18.218;2022-11-21T07:10:43;100244.64;;;-3.05;82.94
75551;BME280;65071;53.082;18.218;2022-11-21T07:13:09;100249.26;;;-3.06;82.84
75551;BME280;65071;53.082;18.218;2022-11-21T07:15:50;100249.34;;;-3.07;82.60
75551;BME280;65071;53.082;18.218;2022-11-21T07:18:17;100246.17;;;-3.07;83.07
75551;BME280;65071;53.082;18.218;2022-11-21T07:20:44;100243.82;;;-2.96;82.87
75551;BME280;65071;53.082;18.218;2022-11-21T07:23:10;100240.13;;;-2.85;82.54
75551;BME280;65071;53.082;18.218;2022-11-21T07:25:37;100242.91;;;-2.79;82.66
75551;BME280;65071;53.082;18.218;2022-11-21T07:28:04;100245.11;;;-2.77;82.61
75551;BME280;65071;53.082;18.218;2022-11-21T07:30:31;100247.30;;;-2.78;82.61
75551;BME280;65071;53.082;18.218;2022-11-21T07:32:58;100242.04;;;-2.79;82.55
75551;BME280;65071;53.082;18.218;2022-11-21T07:35:25;100241.83;;;-2.81;82.42
75551;BME280;65071;53.082;18.218;2022-11-21T07:37:52;100238.77;;;-2.80;82.33
75551;BME280;65071;53.082;18.218;2022-11-21T07:40:18;100236.41;;;-2.76;82.10
75551;BME280;65071;53.082;18.218;2022-11-21T07:42:45;100238.51;;;-2.75;82.44
75551;BME280;65071;53.082;18.218;2022-11-21T07:45:13;100234.83;;;-2.79;82.35
75551;BME280;65071;53.082;18.218;2022-11-21T07:47:40;100238.34;;;-2.79;82.40
75551;BME280;65071;53.082;18.218;2022-11-21T07:50:08;100235.13;;;-2.75;82.15
75551;BME280;65071;53.082;18.218;2022-11-21T07:52:34;100233.03;;;-2.69;82.31
75551;BME280;65071;53.082;18.218;2022-11-21T07:55:01;100232.98;;;-2.58;82.09
75551;BME280;65071;53.082;18.218;2022-11-21T07:57:28;100238.63;;;-2.52;82.11
75551;BME280;65071;53.082;18.218;2022-11-21T07:59:54;100234.63;;;-2.50;82.21
75551;BME280;65071;53.082;18.218;2022-11-21T08:02:22;100235.23;;;-2.48;82.18
75551;BME280;65071;53.082;18.218;2022-11-21T08:04:49;100236.86;;;-2.42;82.39
75551;BME280;65071;53.082;18.218;2022-11-21T08:07:17;100236.82;;;-2.35;82.04
75551;BME280;65071;53.082;18.218;2022-11-21T08:09:44;100238.02;;;-2.29;82.32
75551;BME280;65071;53.082;18.218;2022-11-21T08:12:11;100237.14;;;-2.19;81.84
75551;BME280;65071;53.082;18.218;2022-11-21T08:14:37;100242.69;;;-2.02;81.89
75551;BME280;65071;53.082;18.218;2022-11-21T08:17:04;100247.84;;;-1.88;81.60
75551;BME280;65071;53.082;18.218;2022-11-21T08:19:30;100248.10;;;-1.80;81.78
75551;BME280;65071;53.082;18.218;2022-11-21T08:21:57;100246.65;;;-1.70;81.87
75551;BME280;65071;53.082;18.218;2022-11-21T08:24:24;100248.83;;;-1.60;81.68
75551;BME280;65071;53.082;18.218;2022-11-21T08:26:50;100251.86;;;-1.51;81.60
75551;BME280;65071;53.082;18.218;2022-11-21T08:29:16;100245.90;;;-1.46;81.67
75551;BME280;65071;53.082;18.218;2022-11-21T08:31:43;100243.60;;;-1.39;81.57
75551;BME280;65071;53.082;18.218;2022-11-21T08:34:10;100245.07;;;-1.31;81.20
75551;BME280;65071;53.082;18.218;2022-11-21T08:36:37;100236.07;;;-1.26;81.35
75551;BME280;65071;53.082;18.218;2022-11-21T08:39:03;100240.54;;;-1.18;81.18
75551;BME280;65071;53.082;18.218;2022-11-21T08:41:30;100240.73;;;-1.01;81.30
75551;BME280;65071;53.082;18.218;2022-11-21T08:44:14;100237.80;;;-0.85;81.15
75551;BME280;65071;53.082;18.218;2022-11-21T08:46:40;100239.02;;;-0.76;80.83
75551;BME280;65071;53.082;18.218;2022-11-21T08:49:07;100237.15;;;-0.71;81.05
75551;BME280;65071;53.082;18.218;2022-11-21T08:51:34;100233.80;;;-0.69;80.77
75551;BME280;65071;53.082;18.218;2022-11-21T08:54:00;100233.45;;;-0.69;80.51
75551;BME280;65071;53.082;18.218;2022-11-21T08:56:27;100227.16;;;-0.70;80.67
75551;BME280;65071;53.082;18.218;2022-11-21T08:58:53;100225.04;;;-0.73;80.71
75551;BME280;65071;53.082;18.218;2022-11-21T09:01:19;100226.54;;;-0.74;80.53
75551;BME280;65071;53.082;18.218;2022-11-21T09:03:45;100225.20;;;-0.70;80.32
75551;BME280;65071;53.082;18.218;2022-11-21T09:06:11;100226.73;;;-0.68;80.50
75551;BME280;65071;53.082;18.218;2022-11-21T09:08:38;100226.21;;;-0.66;80.48
75551;BME280;65071;53.082;18.218;2022-11-21T09:11:05;100222.71;;;-0.64;80.65
75551;BME280;65071;53.082;18.218;2022-11-21T09:13:33;100224.11;;;-0.63;80.28
75551;BME280;65071;53.082;18.218;2022-11-21T09:15:59;100212.39;;;-0.74;80.35
75551;BME280;65071;53.082;18.218;2022-11-21T09:18:44;100224.45;;;-0.69;80.15
75551;BME280;65071;53.082;18.218;2022-11-21T09:21:14;100226.45;;;-0.70;80.31
75551;BME280;65071;53.082;18.218;2022-11-21T09:23:41;100228.52;;;-0.63;80.21
75551;BME280;65071;53.082;18.218;2022-11-21T09:26:08;100226.52;;;-0.62;80.00
75551;BME280;65071;53.082;18.218;2022-11-21T09:28:34;100229.84;;;-0.57;80.04
75551;BME280;65071;53.082;18.218;2022-11-21T09:31:03;100230.52;;;-0.53;80.18
75551;BME280;65071;53.082;18.218;2022-11-21T09:33:30;100229.26;;;-0.53;80.22
75551;BME280;65071;53.082;18.218;2022-11-21T09:35:58;100229.53;;;-0.49;80.23
75551;BME280;65071;53.082;18.218;2022-11-21T09:38:25;100232.61;;;-0.47;80.16
75551;BME280;65071;53.082;18.218;2022-11-21T09:46:49;100239.73;;;-0.40;79.87
75551;BME280;65071;53.082;18.218;2022-11-21T09:49:21;100240.61;;;-0.37;80.15
75551;BME280;65071;53.082;18.218;2022-11-21T09:51:47;100235.98;;;-0.34;79.96
75551;BME280;65071;53.082;18.218;2022-11-21T09:54:21;100234.11;;;-0.35;79.90
75551;BME280;65071;53.082;18.218;2022-11-21T09:56:48;100232.98;;;-0.37;79.75
75551;BME280;65071;53.082;18.218;2022-11-21T10:01:46;100229.70;;;-0.38;79.85
75551;BME280;65071;53.082;18.218;2022-11-21T10:04:22;100224.91;;;-0.35;79.73
75551;BME280;65071;53.082;18.218;2022-11-21T10:20:59;100216.48;;;-0.17;79.24
75551;BME280;65071;53.082;18.218;2022-11-21T10:26:16;100210.77;;;-0.15;79.26
75551;BME280;65071;53.082;18.218;2022-11-21T10:28:54;100205.84;;;-0.13;79.01
75551;BME280;65071;53.082;18.218;2022-11-21T10:31:21;100196.22;;;-0.04;78.91
75551;BME280;65071;53.082;18.218;2022-11-21T10:33:50;100193.19;;;0.05;79.13
75551;BME280;65071;53.082;18.218;2022-11-21T10:36:39;100193.60;;;0.12;79.17
75551;BME280;65071;53.082;18.218;2022-11-21T10:39:11;100189.35;;;0.14;78.93
75551;BME280;65071;53.082;18.218;2022-11-21T10:41:49;100187.70;;;0.13;78.96
75551;BME280;65071;53.082;18.218;2022-11-21T10:47:18;100185.19;;;0.19;78.78
75551;BME280;65071;53.082;18.218;2022-11-21T10:52:30;100186.80;;;0.16;78.51
75551;BME280;65071;53.082;18.218;2022-11-21T10:57:31;100175.55;;;0.17;78.42
75551;BME280;65071;53.082;18.218;2022-11-21T11:03:03;100169.46;;;0.21;78.48
75551;BME280;65071;53.082;18.218;2022-11-21T11:05:34;100166.23;;;0.24;78.64
75551;BME280;65071;53.082;18.218;2022-11-21T11:08:12;100158.81;;;0.24;78.54
75551;BME280;65071;53.082;18.218;2022-11-21T11:10:44;100156.32;;;0.24;78.33
75551;BME280;65071;53.082;18.218;2022-11-21T11:13:14;100159.55;;;0.24;78.45
75551;BME280;65071;53.082;18.218;2022-11-21T11:21:17;100152.20;;;0.36;78.22
75551;BME280;65071;53.082;18.218;2022-11-21T11:23:45;100151.77;;;0.39;78.26
75551;BME280;65071;53.082;18.218;2022-11-21T11:26:28;100149.19;;;0.43;78.07
75551;BME280;65071;53.082;18.218;2022-11-21T11:29:08;100147.65;;;0.45;78.32
75551;BME280;65071;53.082;18.218;2022-11-21T11:31:42;100154.56;;;0.47;78.25
75551;BME280;65071;53.082;18.218;2022-11-21T11:34:11;100156.64;;;0.48;77.74
75551;BME280;65071;53.082;18.218;2022-11-21T11:37:38;100155.60;;;0.48;77.88
75551;BME280;65071;53.082;18.218;2022-11-21T11:48:20;100149.49;;;0.59;77.70
75551;BME280;65071;53.082;18.218;2022-11-21T11:51:00;100149.42;;;0.63;77.75
75551;BME280;65071;53.082;18.218;2022-11-21T11:56:01;100145.39;;;0.67;77.73
75551;BME280;65071;53.082;18.218;2022-11-21T12:01:10;100141.48;;;0.70;77.77
75551;BME280;65071;53.082;18.218;2022-11-21T12:04:20;100140.38;;;0.71;77.72
75551;BME280;65071;53.082;18.218;2022-11-21T12:07:17;100138.36;;;0.72;77.72
75551;BME280;65071;53.082;18.218;2022-11-21T12:12:36;100144.71;;;0.67;77.55
75551;BME280;65071;53.082;18.218;2022-11-21T12:15:24;100140.79;;;0.67;77.53
75551;BME280;65071;53.082;18.218;2022-11-21T12:21:07;100132.63;;;0.65;77.58
75551;BME280;65071;53.082;18.218;2022-11-21T12:23:48;100127.36;;;0.67;77.56
75551;BME280;65071;53.082;18.218;2022-11-21T12:26:44;100130.82;;;0.66;77.28
75551;BME280;65071;53.082;18.218;2022-11-21T12:48:13;100149.66;;;0.69;77.58
75551;BME280;65071;53.082;18.218;2022-11-21T12:54:25;100159.96;;;0.56;77.42
75551;BME280;65071;53.082;18.218;2022-11-21T12:59:30;100161.55;;;0.44;77.70
75551;BME280;65071;53.082;18.218;2022-11-21T13:02:23;100167.34;;;0.39;77.42
75551;BME280;65071;53.082;18.218;2022-11-21T13:04:53;100165.16;;;0.35;77.63
75551;BME280;65071;53.082;18.218;2022-11-21T13:07:22;100170.75;;;0.31;77.64
75551;BME280;65071;53.082;18.218;2022-11-21T13:09:51;100159.39;;;0.37;77.32
75551;BME280;65071;53.082;18.218;2022-11-21T13:12:47;100161.91;;;0.36;77.30
75551;BME280;65071;53.082;18.218;2022-11-21T13:15:23;100162.81;;;0.33;77.36
75551;BME280;65071;53.082;18.218;2022-11-21T13:18:14;100172.52;;;0.31;77.52
75551;BME280;65071;53.082;18.218;2022-11-21T13:20:47;100182.83;;;0.30;77.64
75551;BME280;65071;53.082;18.218;2022-11-21T13:23:36;100184.63;;;0.27;78.06
75551;BME280;65071;53.082;18.218;2022-11-21T13:29:10;100179.08;;;0.18;78.13
75551;BME280;65071;53.082;18.218;2022-11-21T13:31:37;100172.84;;;0.13;78.01
75551;BME280;65071;53.082;18.218;2022-11-21T13:36:57;100162.44;;;-0.01;78.14
75551;BME280;65071;53.082;18.218;2022-11-21T13:39:29;100160.70;;;-0.05;78.06
75551;BME280;65071;53.082;18.218;2022-11-21T13:44:40;100156.34;;;0.06;78.14
75551;BME280;65071;53.082;18.218;2022-11-21T14:08:35;100173.64;;;-0.12;78.62
75551;BME280;65071;53.082;18.218;2022-11-21T14:11:18;100170.77;;;-0.15;78.65
75551;BME280;65071;53.082;18.218;2022-11-21T14:13:47;100171.05;;;-0.19;78.70
75551;BME280;65071;53.082;18.218;2022-11-21T14:18:49;100177.08;;;-0.22;78.52
75551;BME280;65071;53.082;18.218;2022-11-21T14:21:26;100176.87;;;-0.16;78.59
75551;BME280;65071;53.082;18.218;2022-11-21T14:24:02;100176.05;;;-0.15;78.44
75551;BME280;65071;53.082;18.218;2022-11-21T14:26:39;100177.47;;;-0.17;78.72
75551;BME280;65071;53.082;18.218;2022-11-21T14:29:19;100174.44;;;-0.17;79.12
75551;BME280;65071;53.082;18.218;2022-11-21T14:31:51;100176.34;;;-0.16;79.00
75551;BME280;65071;53.082;18.218;2022-11-21T14:34:31;100178.18;;;-0.17;78.88
75551;BME280;65071;53.082;18.218;2022-11-21T14:37:03;100180.58;;;-0.21;78.87
75551;BME280;65071;53.082;18.218;2022-11-21T14:39:32;100186.12;;;-0.25;79.02
75551;BME280;65071;53.082;18.218;2022-11-21T14:42:03;100187.65;;;-0.29;78.88
75551;BME280;65071;53.082;18.218;2022-11-21T14:44:30;100186.89;;;-0.37;78.92
75551;BME280;65071;53.082;18.218;2022-11-21T14:47:25;100190.08;;;-0.31;78.79
75551;BME280;65071;53.082;18.218;2022-11-21T14:49:53;100189.23;;;-0.27;78.82
75551;BME280;65071;53.082;18.218;2022-11-21T14:52:25;100191.48;;;-0.26;78.82
75551;BME280;65071;53.082;18.218;2022-11-21T14:54:55;100193.71;;;-0.25;79.24
75551;BME280;65071;53.082;18.218;2022-11-21T14:59:50;100188.91;;;-0.33;79.21
75551;BME280;65071;53.082;18.218;2022-11-21T15:02:22;100185.05;;;-0.36;79.26
75551;BME280;65071;53.082;18.218;2022-11-21T15:04:50;100181.29;;;-0.38;79.27